sensor_id;sensor_type;location;lat;lon;timestamp;P1;durP1;ratioP1;P2;durP2;ratioP2
36457;SDS011;22480;50.546;12.292;2024-02-16T00:02:01;3.42;;;1.50;;
36457;SDS011;22480;50.546;12.292;2024-02-16T00:04:27;2.95;;;1.45;;
36457;SDS011;22480;50.546;12.292;2024-02-16T00:06:52;1.50;;;1.40;;
36457;SDS011;22480;50.546;12.292;2024-02-16T00:09:18;1.45;;;1.08;;
36457;SDS011;22480;50.546;12.292;2024-02-16T00:11:44;3.03;;;1.15;;
36457;SDS011;22480;50.546;12.292;2024-02-16T00:14:10;1.60;;;1.20;;
36457;SDS011;22480;50.546;12.292;2024-02-16T00:16:36;1.67;;;1.23;;
36457;SDS011;22480;50.546;12.292;2024-02-16T00:19:01;2.53;;;1.40;;
36457;SDS011;22480;50.546;12.292;2024-02-16T00:21:27;3.60;;;1.48;;
36457;SDS011;22480;50.546;12.292;2024-02-16T00:23:54;2.97;;;1.20;;
36457;SDS011;22480;50.546;12.292;2024-02-16T00:26:19;2.15;;;1.08;;
36457;SDS011;22480;50.546;12.292;2024-02-16T00:28:46;2.03;;;0.98;;
36457;SDS011;22480;50.546;12.292;2024-02-16T00:31:12;2.08;;;1.35;;
36457;SDS011;22480;50.546;12.292;2024-02-16T00:33:38;2.05;;;1.50;;
36457;SDS011;22480;50.546;12.292;2024-02-16T00:36:03;4.32;;;1.50;;
36457;SDS011;22480;50.546;12.292;2024-02-16T00:38:29;3.17;;;1.55;;
36457;SDS011;22480;50.546;12.292;2024-02-16T00:40:55;2.50;;;1.33;;
36457;SDS011;22480;50.546;12.292;2024-02-16T00:43:20;2.42;;;1.40;;
36457;SDS011;22480;50.546;12.292;2024-02-16T00:45:46;1.40;;;1.30;;
36457;SDS011;22480;50.546;12.292;2024-02-16T00:48:13;2.25;;;1.23;;
36457;SDS011;22480;50.546;12.292;2024-02-16T00:50:39;4.75;;;1.88;;
36457;SDS011;22480;50.546;12.292;2024-02-16T00:53:05;3.28;;;1.77;;
36457;SDS011;22480;50.546;12.292;2024-02-16T00:55:30;2.80;;;1.55;;
36457;SDS011;22480;50.546;12.292;2024-02-16T00:57:56;1.42;;;1.20;;
36457;SDS011;22480;50.546;12.292;2024-02-16T01:00:22;1.98;;;1.33;;
36457;SDS011;22480;50.546;12.292;2024-02-16T01:02:51;2.30;;;0.98;;
36457;SDS011;22480;50.546;12.292;2024-02-16T01:05:20;1.93;;;1.30;;
36457;SDS011;22480;50.546;12.292;2024-02-16T01:07:48;1.33;;;1.02;;
36457;SDS011;22480;50.546;12.292;2024-02-16T01:10:13;3.20;;;1.00;;
36457;SDS011;22480;50.546;12.292;2024-02-16T01:12:39;3.88;;;1.55;;
36457;SDS011;22480;50.546;12.292;2024-02-16T01:15:05;1.90;;;1.17;;
36457;SDS011;22480;50.546;12.292;2024-02-16T01:17:31;3.67;;;1.42;;
36457;SDS011;22480;50.546;12.292;2024-02-16T01:20:00;3.65;;;1.58;;
36457;SDS011;22480;50.546;12.292;2024-02-16T01:22:25;3.33;;;1.10;;
36457;SDS011;22480;50.546;12.292;2024-02-16T01:24:54;3.15;;;1.40;;
36457;SDS011;22480;50.546;12.292;2024-02-16T01:27:19;3.45;;;1.60;;
36457;SDS011;22480;50.546;12.292;2024-02-16T01:29:46;2.63;;;1.50;;
36457;SDS011;22480;50.546;12.292;2024-02-16T01:32:12;2.45;;;1.20;;
36457;SDS011;22480;50.546;12.292;2024-02-16T01:34:39;1.75;;;1.45;;
36457;SDS011;22480;50.546;12.292;2024-02-16T01:37:05;1.85;;;1.30;;
36457;SDS011;22480;50.546;12.292;2024-02-16T01:39:30;1.33;;;1.10;;
36457;SDS011;22480;50.546;12.292;2024-02-16T01:41:56;4.40;;;1.75;;
36457;SDS011;22480;50.546;12.292;2024-02-16T01:44:21;1.67;;;1.20;;
36457;SDS011;22480;50.546;12.292;2024-02-16T01:46:47;3.60;;;1.35;;
36457;SDS011;22480;50.546;12.292;2024-02-16T01:49:13;2.88;;;1.40;;
36457;SDS011;22480;50.546;12.292;2024-02-16T01:51:40;1.30;;;1.13;;
36457;SDS011;22480;50.546;12.292;2024-02-16T01:54:07;1.02;;;0.90;;
36457;SDS011;22480;50.546;12.292;2024-02-16T01:56:33;2.00;;;1.50;;
36457;SDS011;22480;50.546;12.292;2024-02-16T01:58:59;1.95;;;1.27;;
36457;SDS011;22480;50.546;12.292;2024-02-16T02:01:24;1.80;;;1.02;;
36457;SDS011;22480;50.546;12.292;2024-02-16T02:03:50;3.75;;;1.30;;
36457;SDS011;22480;50.546;12.292;2024-02-16T02:06:16;2.20;;;1.27;;
36457;SDS011;22480;50.546;12.292;2024-02-16T02:08:42;5.68;;;1.60;;
36457;SDS011;22480;50.546;12.292;2024-02-16T02:11:07;1.33;;;0.98;;
36457;SDS011;22480;50.546;12.292;2024-02-16T02:13:33;2.35;;;1.23;;
36457;SDS011;22480;50.546;12.292;2024-02-16T02:15:59;1.90;;;1.00;;
36457;SDS011;22480;50.546;12.292;2024-02-16T02:18:28;2.10;;;1.40;;
36457;SDS011;22480;50.546;12.292;2024-02-16T02:20:54;2.40;;;1.20;;
36457;SDS011;22480;50.546;12.292;2024-02-16T02:23:19;2.08;;;1.13;;
36457;SDS011;22480;50.546;12.292;2024-02-16T02:25:46;2.75;;;1.20;;
36457;SDS011;22480;50.546;12.292;2024-02-16T02:28:14;1.67;;;0.90;;
36457;SDS011;22480;50.546;12.292;2024-02-16T02:30:40;1.30;;;0.93;;
36457;SDS011;22480;50.546;12.292;2024-02-16T02:33:07;1.10;;;0.90;;
36457;SDS011;22480;50.546;12.292;2024-02-16T02:35:34;2.28;;;1.08;;
36457;SDS011;22480;50.546;12.292;2024-02-16T02:38:00;2.80;;;1.00;;
36457;SDS011;22480;50.546;12.292;2024-02-16T02:40:25;2.65;;;1.00;;
36457;SDS011;22480;50.546;12.292;2024-02-16T02:42:52;2.08;;;1.02;;
36457;SDS011;22480;50.546;12.292;2024-02-16T02:45:18;2.50;;;1.13;;
36457;SDS011;22480;50.546;12.292;2024-02-16T02:47:44;3.00;;;1.30;;
36457;SDS011;22480;50.546;12.292;2024-02-16T02:50:11;2.08;;;1.33;;
36457;SDS011;22480;50.546;12.292;2024-02-16T02:52:37;2.65;;;1.30;;
36457;SDS011;22480;50.546;12.292;2024-02-16T02:55:03;1.77;;;1.00;;
36457;SDS011;22480;50.546;12.292;2024-02-16T02:57:29;2.28;;;1.13;;
36457;SDS011;22480;50.546;12.292;2024-02-16T03:00:02;1.58;;;1.20;;
36457;SDS011;22480;50.546;12.292;2024-02-16T03:02:31;1.60;;;1.20;;
36457;SDS011;22480;50.546;12.292;2024-02-16T03:04:57;1.20;;;1.00;;
36457;SDS011;22480;50.546;12.292;2024-02-16T03:07:22;2.60;;;1.10;;
36457;SDS011;22480;50.546;12.292;2024-02-16T03:09:48;1.40;;;1.13;;
36457;SDS011;22480;50.546;12.292;2024-02-16T03:12:14;5.10;;;1.30;;
36457;SDS011;22480;50.546;12.292;2024-02-16T03:14:40;1.25;;;0.90;;
36457;SDS011;22480;50.546;12.292;2024-02-16T03:17:06;2.20;;;1.10;;
36457;SDS011;22480;50.546;12.292;2024-02-16T03:19:32;2.80;;;1.10;;
36457;SDS011;22480;50.546;12.292;2024-02-16T03:21:58;1.63;;;1.20;;
36457;SDS011;22480;50.546;12.292;2024-02-16T03:24:24;1.40;;;0.95;;
36457;SDS011;22480;50.546;12.292;2024-02-16T03:26:49;1.40;;;1.20;;
36457;SDS011;22480;50.546;12.292;2024-02-16T03:29:15;1.30;;;0.90;;
36457;SDS011;22480;50.546;12.292;2024-02-16T03:31:41;1.25;;;1.15;;
36457;SDS011;22480;50.546;12.292;2024-02-16T03:34:06;2.00;;;1.30;;
36457;SDS011;22480;50.546;12.292;2024-02-16T03:36:32;1.73;;;1.13;;
36457;SDS011;22480;50.546;12.292;2024-02-16T03:38:58;1.77;;;1.05;;
36457;SDS011;22480;50.546;12.292;2024-02-16T03:41:24;2.45;;;1.00;;
36457;SDS011;22480;50.546;12.292;2024-02-16T03:43:50;1.38;;;1.05;;
36457;SDS011;22480;50.546;12.292;2024-02-16T03:46:16;2.00;;;0.80;;
36457;SDS011;22480;50.546;12.292;2024-02-16T03:48:42;1.95;;;0.93;;
36457;SDS011;22480;50.546;12.292;2024-02-16T03:51:09;0.98;;;0.88;;
36457;SDS011;22480;50.546;12.292;2024-02-16T03:53:35;2.10;;;1.00;;
36457;SDS011;22480;50.546;12.292;2024-02-16T03:56:01;2.13;;;1.33;;
36457;SDS011;22480;50.546;12.292;2024-02-16T03:58:26;0.98;;;0.88;;
36457;SDS011;22480;50.546;12.292;2024-02-16T04:00:52;5.28;;;0.82;;
36457;SDS011;22480;50.546;12.292;2024-02-16T04:03:18;1.45;;;0.70;;
36457;SDS011;22480;50.546;12.292;2024-02-16T04:05:44;1.67;;;1.05;;
36457;SDS011;22480;50.546;12.292;2024-02-16T04:08:10;1.35;;;0.65;;
36457;SDS011;22480;50.546;12.292;2024-02-16T04:10:35;1.58;;;1.00;;
36457;SDS011;22480;50.546;12.292;2024-02-16T04:13:02;1.85;;;0.90;;
36457;SDS011;22480;50.546;12.292;2024-02-16T04:15:28;1.08;;;0.85;;
36457;SDS011;22480;50.546;12.292;2024-02-16T04:17:54;1.40;;;1.00;;
36457;SDS011;22480;50.546;12.292;2024-02-16T04:20:19;1.55;;;0.85;;
36457;SDS011;22480;50.546;12.292;2024-02-16T04:22:45;1.45;;;0.90;;
36457;SDS011;22480;50.546;12.292;2024-02-16T04:25:11;2.15;;;0.82;;
36457;SDS011;22480;50.546;12.292;2024-02-16T04:27:37;1.02;;;0.85;;
36457;SDS011;22480;50.546;12.292;2024-02-16T04:30:03;0.90;;;0.80;;
36457;SDS011;22480;50.546;12.292;2024-02-16T04:32:30;0.90;;;0.70;;
36457;SDS011;22480;50.546;12.292;2024-02-16T04:34:56;4.13;;;0.90;;
36457;SDS011;22480;50.546;12.292;2024-02-16T04:37:22;2.25;;;0.70;;
36457;SDS011;22480;50.546;12.292;2024-02-16T04:39:49;0.70;;;0.70;;
36457;SDS011;22480;50.546;12.292;2024-02-16T04:42:14;0.75;;;0.70;;
36457;SDS011;22480;50.546;12.292;2024-02-16T04:44:41;0.90;;;0.60;;
36457;SDS011;22480;50.546;12.292;2024-02-16T04:47:07;2.25;;;1.17;;
36457;SDS011;22480;50.546;12.292;2024-02-16T04:49:34;1.70;;;0.90;;
36457;SDS011;22480;50.546;12.292;2024-02-16T04:52:00;1.15;;;0.63;;
36457;SDS011;22480;50.546;12.292;2024-02-16T04:54:26;0.90;;;0.80;;
36457;SDS011;22480;50.546;12.292;2024-02-16T04:56:52;0.98;;;0.75;;
36457;SDS011;22480;50.546;12.292;2024-02-16T04:59:18;1.08;;;0.70;;
36457;SDS011;22480;50.546;12.292;2024-02-16T05:01:43;1.90;;;0.85;;
36457;SDS011;22480;50.546;12.292;2024-02-16T05:04:12;1.17;;;0.60;;
36457;SDS011;22480;50.546;12.292;2024-02-16T05:06:42;0.98;;;0.75;;
36457;SDS011;22480;50.546;12.292;2024-02-16T05:09:08;0.80;;;0.60;;
36457;SDS011;22480;50.546;12.292;2024-02-16T05:11:34;0.60;;;0.60;;
36457;SDS011;22480;50.546;12.292;2024-02-16T05:14:00;0.93;;;0.80;;
36457;SDS011;22480;50.546;12.292;2024-02-16T05:16:26;0.88;;;0.70;;
36457;SDS011;22480;50.546;12.292;2024-02-16T05:18:52;0.95;;;0.70;;
36457;SDS011;22480;50.546;12.292;2024-02-16T05:21:21;0.43;;;0.43;;
36457;SDS011;22480;50.546;12.292;2024-02-16T05:23:47;0.80;;;0.80;;
36457;SDS011;22480;50.546;12.292;2024-02-16T05:26:13;0.73;;;0.57;;
36457;SDS011;22480;50.546;12.292;2024-02-16T05:28:39;1.08;;;0.70;;
36457;SDS011;22480;50.546;12.292;2024-02-16T05:31:14;0.70;;;0.70;;
36457;SDS011;22480;50.546;12.292;2024-02-16T05:33:47;1.40;;;0.80;;
36457;SDS011;22480;50.546;12.292;2024-02-16T05:36:18;1.63;;;0.75;;
36457;SDS011;22480;50.546;12.292;2024-02-16T05:38:48;0.82;;;0.65;;
36457;SDS011;22480;50.546;12.292;2024-02-16T05:41:15;0.88;;;0.60;;
36457;SDS011;22480;50.546;12.292;2024-02-16T05:43:43;1.77;;;0.70;;
36457;SDS011;22480;50.546;12.292;2024-02-16T05:46:13;0.80;;;0.60;;
36457;SDS011;22480;50.546;12.292;2024-02-16T05:48:39;0.93;;;0.60;;
36457;SDS011;22480;50.546;12.292;2024-02-16T05:51:06;0.60;;;0.60;;
36457;SDS011;22480;50.546;12.292;2024-02-16T05:53:35;0.77;;;0.57;;
36457;SDS011;22480;50.546;12.292;2024-02-16T05:56:01;1.10;;;0.77;;
36457;SDS011;22480;50.546;12.292;2024-02-16T05:58:27;0.73;;;0.73;;
36457;SDS011;22480;50.546;12.292;2024-02-16T06:00:54;0.82;;;0.60;;
36457;SDS011;22480;50.546;12.292;2024-02-16T06:03:20;1.10;;;0.70;;
36457;SDS011;22480;50.546;12.292;2024-02-16T06:05:45;0.80;;;0.60;;
36457;SDS011;22480;50.546;12.292;2024-02-16T06:08:11;1.00;;;0.65;;
36457;SDS011;22480;50.546;12.292;2024-02-16T06:10:38;0.95;;;0.60;;
36457;SDS011;22480;50.546;12.292;2024-02-16T06:13:04;1.33;;;0.88;;
36457;SDS011;22480;50.546;12.292;2024-02-16T06:15:31;1.17;;;0.98;;
36457;SDS011;22480;50.546;12.292;2024-02-16T06:17:59;0.90;;;0.80;;
36457;SDS011;22480;50.546;12.292;2024-02-16T06:20:25;1.50;;;1.00;;
36457;SDS011;22480;50.546;12.292;2024-02-16T06:22:50;1.00;;;0.90;;
36457;SDS011;22480;50.546;12.292;2024-02-16T06:25:16;1.67;;;0.85;;
36457;SDS011;22480;50.546;12.292;2024-02-16T06:27:42;1.40;;;0.90;;
36457;SDS011;22480;50.546;12.292;2024-02-16T06:30:07;1.30;;;0.98;;
36457;SDS011;22480;50.546;12.292;2024-02-16T06:32:38;1.60;;;1.10;;
36457;SDS011;22480;50.546;12.292;2024-02-16T06:35:06;1.42;;;0.90;;
36457;SDS011;22480;50.546;12.292;2024-02-16T06:37:33;1.33;;;1.00;;
36457;SDS011;22480;50.546;12.292;2024-02-16T06:39:59;1.35;;;0.90;;
36457;SDS011;22480;50.546;12.292;2024-02-16T06:42:24;1.38;;;1.00;;
36457;SDS011;22480;50.546;12.292;2024-02-16T06:44:50;0.60;;;0.60;;
36457;SDS011;22480;50.546;12.292;2024-02-16T06:47:16;0.77;;;0.60;;
36457;SDS011;22480;50.546;12.292;2024-02-16T06:49:41;1.70;;;0.90;;
36457;SDS011;22480;50.546;12.292;2024-02-16T06:52:07;1.00;;;0.68;;
36457;SDS011;22480;50.546;12.292;2024-02-16T06:54:35;1.00;;;0.90;;
36457;SDS011;22480;50.546;12.292;2024-02-16T06:57:00;0.70;;;0.50;;
36457;SDS011;22480;50.546;12.292;2024-02-16T06:59:26;4.00;;;1.20;;
36457;SDS011;22480;50.546;12.292;2024-02-16T07:01:52;0.75;;;0.70;;
36457;SDS011;22480;50.546;12.292;2024-02-16T07:04:18;2.25;;;1.50;;
36457;SDS011;22480;50.546;12.292;2024-02-16T07:06:43;1.27;;;1.10;;
36457;SDS011;22480;50.546;12.292;2024-02-16T07:09:09;3.38;;;2.03;;
36457;SDS011;22480;50.546;12.292;2024-02-16T07:11:35;6.72;;;4.63;;
36457;SDS011;22480;50.546;12.292;2024-02-16T07:14:01;6.65;;;4.43;;
36457;SDS011;22480;50.546;12.292;2024-02-16T07:16:27;11.85;;;7.25;;
36457;SDS011;22480;50.546;12.292;2024-02-16T07:18:53;12.18;;;7.45;;
36457;SDS011;22480;50.546;12.292;2024-02-16T07:21:19;10.20;;;6.93;;
36457;SDS011;22480;50.546;12.292;2024-02-16T07:23:47;17.60;;;10.50;;
36457;SDS011;22480;50.546;12.292;2024-02-16T07:26:13;10.95;;;6.53;;
36457;SDS011;22480;50.546;12.292;2024-02-16T07:28:39;5.43;;;3.28;;
36457;SDS011;22480;50.546;12.292;2024-02-16T07:31:05;7.53;;;3.85;;
36457;SDS011;22480;50.546;12.292;2024-02-16T07:33:31;9.65;;;5.15;;
36457;SDS011;22480;50.546;12.292;2024-02-16T07:35:57;13.20;;;5.80;;
36457;SDS011;22480;50.546;12.292;2024-02-16T07:38:22;13.63;;;7.45;;
36457;SDS011;22480;50.546;12.292;2024-02-16T07:40:48;19.15;;;9.13;;
36457;SDS011;22480;50.546;12.292;2024-02-16T07:43:15;9.00;;;5.15;;
36457;SDS011;22480;50.546;12.292;2024-02-16T07:45:42;5.05;;;2.80;;
36457;SDS011;22480;50.546;12.292;2024-02-16T07:48:08;7.63;;;4.13;;
36457;SDS011;22480;50.546;12.292;2024-02-16T07:50:33;7.35;;;3.28;;
36457;SDS011;22480;50.546;12.292;2024-02-16T07:52:59;3.97;;;2.55;;
36457;SDS011;22480;50.546;12.292;2024-02-16T07:55:25;7.68;;;4.65;;
36457;SDS011;22480;50.546;12.292;2024-02-16T07:57:51;8.40;;;4.13;;
36457;SDS011;22480;50.546;12.292;2024-02-16T08:00:17;6.07;;;3.42;;
36457;SDS011;22480;50.546;12.292;2024-02-16T08:02:43;7.85;;;3.47;;
36457;SDS011;22480;50.546;12.292;2024-02-16T08:05:11;6.72;;;4.03;;
36457;SDS011;22480;50.546;12.292;2024-02-16T08:07:38;5.53;;;2.53;;
36457;SDS011;22480;50.546;12.292;2024-02-16T08:10:06;1.50;;;0.85;;
36457;SDS011;22480;50.546;12.292;2024-02-16T08:12:33;2.30;;;1.33;;
36457;SDS011;22480;50.546;12.292;2024-02-16T08:15:01;1.13;;;0.60;;
36457;SDS011;22480;50.546;12.292;2024-02-16T08:17:35;1.73;;;1.10;;
36457;SDS011;22480;50.546;12.292;2024-02-16T08:20:02;1.50;;;0.80;;
36457;SDS011;22480;50.546;12.292;2024-02-16T08:22:28;2.47;;;1.33;;
36457;SDS011;22480;50.546;12.292;2024-02-16T08:24:54;1.10;;;0.90;;
36457;SDS011;22480;50.546;12.292;2024-02-16T08:27:20;3.72;;;1.45;;
36457;SDS011;22480;50.546;12.292;2024-02-16T08:29:45;8.70;;;4.50;;
36457;SDS011;22480;50.546;12.292;2024-02-16T08:32:11;2.80;;;1.98;;
36457;SDS011;22480;50.546;12.292;2024-02-16T08:34:37;2.28;;;1.63;;
36457;SDS011;22480;50.546;12.292;2024-02-16T08:37:03;6.13;;;3.72;;
36457;SDS011;22480;50.546;12.292;2024-02-16T08:39:30;6.00;;;3.50;;
36457;SDS011;22480;50.546;12.292;2024-02-16T08:41:57;7.40;;;3.97;;
36457;SDS011;22480;50.546;12.292;2024-02-16T08:44:23;5.47;;;2.80;;
36457;SDS011;22480;50.546;12.292;2024-02-16T08:46:50;4.10;;;2.08;;
36457;SDS011;22480;50.546;12.292;2024-02-16T08:49:16;2.80;;;1.40;;
36457;SDS011;22480;50.546;12.292;2024-02-16T08:51:41;1.73;;;1.27;;
36457;SDS011;22480;50.546;12.292;2024-02-16T08:54:07;3.50;;;1.25;;
36457;SDS011;22480;50.546;12.292;2024-02-16T08:56:33;6.35;;;3.28;;
36457;SDS011;22480;50.546;12.292;2024-02-16T08:59:03;2.90;;;1.70;;
36457;SDS011;22480;50.546;12.292;2024-02-16T09:01:29;3.90;;;2.42;;
36457;SDS011;22480;50.546;12.292;2024-02-16T09:06:25;1.10;;;0.57;;
36457;SDS011;22480;50.546;12.292;2024-02-16T09:08:51;1.33;;;0.60;;
36457;SDS011;22480;50.546;12.292;2024-02-16T09:11:17;1.05;;;0.57;;
36457;SDS011;22480;50.546;12.292;2024-02-16T09:13:43;1.33;;;0.85;;
36457;SDS011;22480;50.546;12.292;2024-02-16T09:16:09;1.40;;;1.10;;
36457;SDS011;22480;50.546;12.292;2024-02-16T09:18:34;0.90;;;0.73;;
36457;SDS011;22480;50.546;12.292;2024-02-16T09:21:03;3.42;;;2.30;;
36457;SDS011;22480;50.546;12.292;2024-02-16T09:23:29;2.40;;;1.48;;
36457;SDS011;22480;50.546;12.292;2024-02-16T09:25:56;4.60;;;2.17;;
36457;SDS011;22480;50.546;12.292;2024-02-16T09:28:21;1.40;;;0.85;;
36457;SDS011;22480;50.546;12.292;2024-02-16T09:30:47;2.03;;;0.70;;
36457;SDS011;22480;50.546;12.292;2024-02-16T09:33:13;0.68;;;0.60;;
36457;SDS011;22480;50.546;12.292;2024-02-16T09:35:39;1.35;;;0.68;;
36457;SDS011;22480;50.546;12.292;2024-02-16T09:38:05;0.60;;;0.50;;
36457;SDS011;22480;50.546;12.292;2024-02-16T09:40:31;0.60;;;0.60;;
36457;SDS011;22480;50.546;12.292;2024-02-16T09:42:57;1.40;;;0.70;;
36457;SDS011;22480;50.546;12.292;2024-02-16T09:45:23;0.68;;;0.40;;
36457;SDS011;22480;50.546;12.292;2024-02-16T09:47:51;0.80;;;0.50;;
36457;SDS011;22480;50.546;12.292;2024-02-16T09:50:19;0.82;;;0.63;;
36457;SDS011;22480;50.546;12.292;2024-02-16T09:52:49;0.80;;;0.80;;
36457;SDS011;22480;50.546;12.292;2024-02-16T09:55:16;0.82;;;0.73;;
36457;SDS011;22480;50.546;12.292;2024-02-16T09:57:45;0.82;;;0.63;;
36457;SDS011;22480;50.546;12.292;2024-02-16T10:00:11;1.25;;;0.80;;
36457;SDS011;22480;50.546;12.292;2024-02-16T10:02:45;3.95;;;0.80;;
36457;SDS011;22480;50.546;12.292;2024-02-16T10:05:19;1.50;;;0.90;;
36457;SDS011;22480;50.546;12.292;2024-02-16T10:07:45;1.17;;;0.90;;
36457;SDS011;22480;50.546;12.292;2024-02-16T10:10:27;1.08;;;0.85;;
36457;SDS011;22480;50.546;12.292;2024-02-16T10:13:04;1.30;;;0.80;;
36457;SDS011;22480;50.546;12.292;2024-02-16T10:15:34;1.15;;;0.70;;
36457;SDS011;22480;50.546;12.292;2024-02-16T10:18:00;0.95;;;0.85;;
36457;SDS011;22480;50.546;12.292;2024-02-16T10:20:27;1.60;;;0.90;;
36457;SDS011;22480;50.546;12.292;2024-02-16T10:23:04;1.83;;;0.77;;
36457;SDS011;22480;50.546;12.292;2024-02-16T10:25:34;1.92;;;1.00;;
36457;SDS011;22480;50.546;12.292;2024-02-16T10:28:05;2.15;;;0.90;;
36457;SDS011;22480;50.546;12.292;2024-02-16T10:30:38;1.67;;;0.90;;
36457;SDS011;22480;50.546;12.292;2024-02-16T10:33:05;0.90;;;0.75;;
36457;SDS011;22480;50.546;12.292;2024-02-16T10:35:32;1.33;;;0.90;;
36457;SDS011;22480;50.546;12.292;2024-02-16T10:38:03;1.15;;;1.02;;
36457;SDS011;22480;50.546;12.292;2024-02-16T10:40:36;0.95;;;0.90;;
36457;SDS011;22480;50.546;12.292;2024-02-16T10:43:03;1.00;;;0.80;;
36457;SDS011;22480;50.546;12.292;2024-02-16T10:45:33;1.17;;;0.90;;
36457;SDS011;22480;50.546;12.292;2024-02-16T10:50:31;2.40;;;1.37;;
36457;SDS011;22480;50.546;12.292;2024-02-16T10:52:58;3.08;;;2.35;;
36457;SDS011;22480;50.546;12.292;2024-02-16T10:55:29;1.40;;;1.30;;
36457;SDS011;22480;50.546;12.292;2024-02-16T10:57:56;2.58;;;1.80;;
36457;SDS011;22480;50.546;12.292;2024-02-16T11:00:22;1.90;;;1.48;;
36457;SDS011;22480;50.546;12.292;2024-02-16T11:02:51;2.08;;;1.42;;
36457;SDS011;22480;50.546;12.292;2024-02-16T11:05:31;1.10;;;1.00;;
36457;SDS011;22480;50.546;12.292;2024-02-16T11:08:04;4.20;;;1.20;;
36457;SDS011;22480;50.546;12.292;2024-02-16T11:10:36;2.63;;;1.50;;
36457;SDS011;22480;50.546;12.292;2024-02-16T11:13:02;1.95;;;1.02;;
36457;SDS011;22480;50.546;12.292;2024-02-16T11:15:33;1.13;;;1.02;;
36457;SDS011;22480;50.546;12.292;2024-02-16T11:18:03;1.42;;;1.15;;
36457;SDS011;22480;50.546;12.292;2024-02-16T11:20:36;1.50;;;1.13;;
36457;SDS011;22480;50.546;12.292;2024-02-16T11:23:05;1.65;;;1.00;;
36457;SDS011;22480;50.546;12.292;2024-02-16T11:25:32;3.42;;;1.10;;
36457;SDS011;22480;50.546;12.292;2024-02-16T11:27:59;1.88;;;1.20;;
36457;SDS011;22480;50.546;12.292;2024-02-16T11:30:25;1.95;;;1.27;;
36457;SDS011;22480;50.546;12.292;2024-02-16T11:32:51;2.72;;;1.20;;
36457;SDS011;22480;50.546;12.292;2024-02-16T11:35:17;2.63;;;1.20;;
36457;SDS011;22480;50.546;12.292;2024-02-16T11:37:43;1.27;;;1.10;;
36457;SDS011;22480;50.546;12.292;2024-02-16T11:40:14;1.67;;;1.08;;
36457;SDS011;22480;50.546;12.292;2024-02-16T11:42:39;1.13;;;0.90;;
36457;SDS011;22480;50.546;12.292;2024-02-16T11:45:10;1.23;;;1.05;;
36457;SDS011;22480;50.546;12.292;2024-02-16T11:47:37;1.20;;;1.10;;
36457;SDS011;22480;50.546;12.292;2024-02-16T11:50:09;3.38;;;1.40;;
36457;SDS011;22480;50.546;12.292;2024-02-16T11:52:39;2.63;;;0.90;;
36457;SDS011;22480;50.546;12.292;2024-02-16T11:55:08;1.45;;;1.02;;
36457;SDS011;22480;50.546;12.292;2024-02-16T11:57:36;0.88;;;0.88;;
36457;SDS011;22480;50.546;12.292;2024-02-16T12:00:03;1.88;;;1.10;;
36457;SDS011;22480;50.546;12.292;2024-02-16T12:02:33;1.00;;;0.80;;
36457;SDS011;22480;50.546;12.292;2024-02-16T12:05:00;1.83;;;1.08;;
36457;SDS011;22480;50.546;12.292;2024-02-16T12:07:26;2.90;;;1.20;;
36457;SDS011;22480;50.546;12.292;2024-02-16T12:09:56;1.33;;;0.90;;
36457;SDS011;22480;50.546;12.292;2024-02-16T12:12:26;2.17;;;1.02;;
36457;SDS011;22480;50.546;12.292;2024-02-16T12:14:55;2.30;;;1.20;;
36457;SDS011;22480;50.546;12.292;2024-02-16T12:17:21;1.70;;;1.05;;
36457;SDS011;22480;50.546;12.292;2024-02-16T12:19:47;1.73;;;1.08;;
36457;SDS011;22480;50.546;12.292;2024-02-16T12:22:18;1.67;;;1.08;;
36457;SDS011;22480;50.546;12.292;2024-02-16T12:24:48;2.47;;;1.30;;
36457;SDS011;22480;50.546;12.292;2024-02-16T12:27:15;1.00;;;0.90;;
36457;SDS011;22480;50.546;12.292;2024-02-16T12:29:41;1.60;;;1.08;;
36457;SDS011;22480;50.546;12.292;2024-02-16T12:32:07;1.50;;;1.40;;
36457;SDS011;22480;50.546;12.292;2024-02-16T12:34:36;1.50;;;0.95;;
36457;SDS011;22480;50.546;12.292;2024-02-16T12:37:06;1.40;;;1.13;;
36457;SDS011;22480;50.546;12.292;2024-02-16T12:39:33;1.52;;;1.20;;
36457;SDS011;22480;50.546;12.292;2024-02-16T12:41:59;0.90;;;0.80;;
36457;SDS011;22480;50.546;12.292;2024-02-16T12:44:25;1.40;;;1.15;;
36457;SDS011;22480;50.546;12.292;2024-02-16T12:46:51;1.70;;;1.20;;
36457;SDS011;22480;50.546;12.292;2024-02-16T12:49:17;2.05;;;1.30;;
36457;SDS011;22480;50.546;12.292;2024-02-16T12:51:46;2.05;;;1.50;;
36457;SDS011;22480;50.546;12.292;2024-02-16T12:54:13;4.15;;;2.70;;
36457;SDS011;22480;50.546;12.292;2024-02-16T12:56:44;3.35;;;1.88;;
36457;SDS011;22480;50.546;12.292;2024-02-16T12:59:13;2.97;;;2.13;;
36457;SDS011;22480;50.546;12.292;2024-02-16T13:01:39;3.92;;;2.15;;
36457;SDS011;22480;50.546;12.292;2024-02-16T13:04:06;2.45;;;1.48;;
36457;SDS011;22480;50.546;12.292;2024-02-16T13:06:32;2.83;;;2.22;;
36457;SDS011;22480;50.546;12.292;2024-02-16T13:08:58;3.55;;;1.98;;
36457;SDS011;22480;50.546;12.292;2024-02-16T13:11:24;5.50;;;2.67;;
36457;SDS011;22480;50.546;12.292;2024-02-16T13:13:50;5.93;;;4.00;;
36457;SDS011;22480;50.546;12.292;2024-02-16T13:16:16;2.13;;;1.90;;
36457;SDS011;22480;50.546;12.292;2024-02-16T13:18:43;1.88;;;1.40;;
36457;SDS011;22480;50.546;12.292;2024-02-16T13:21:08;3.50;;;1.48;;
36457;SDS011;22480;50.546;12.292;2024-02-16T13:23:34;1.75;;;1.30;;
36457;SDS011;22480;50.546;12.292;2024-02-16T13:26:00;1.63;;;1.40;;
36457;SDS011;22480;50.546;12.292;2024-02-16T13:28:26;1.88;;;1.40;;
36457;SDS011;22480;50.546;12.292;2024-02-16T13:30:51;1.98;;;1.30;;
36457;SDS011;22480;50.546;12.292;2024-02-16T13:33:17;3.40;;;1.73;;
36457;SDS011;22480;50.546;12.292;2024-02-16T13:35:43;4.40;;;2.05;;
36457;SDS011;22480;50.546;12.292;2024-02-16T13:38:08;2.55;;;2.13;;
36457;SDS011;22480;50.546;12.292;2024-02-16T13:40:34;4.00;;;2.40;;
36457;SDS011;22480;50.546;12.292;2024-02-16T13:43:00;3.65;;;2.08;;
36457;SDS011;22480;50.546;12.292;2024-02-16T13:45:48;4.05;;;2.42;;
36457;SDS011;22480;50.546;12.292;2024-02-16T13:48:15;7.05;;;3.63;;
36457;SDS011;22480;50.546;12.292;2024-02-16T13:50:43;5.53;;;3.17;;
36457;SDS011;22480;50.546;12.292;2024-02-16T13:53:10;4.03;;;2.70;;
36457;SDS011;22480;50.546;12.292;2024-02-16T13:55:36;2.47;;;1.80;;
36457;SDS011;22480;50.546;12.292;2024-02-16T13:58:01;3.10;;;1.90;;
36457;SDS011;22480;50.546;12.292;2024-02-16T14:00:27;4.00;;;2.00;;
36457;SDS011;22480;50.546;12.292;2024-02-16T14:02:53;3.15;;;1.80;;
36457;SDS011;22480;50.546;12.292;2024-02-16T14:05:19;4.72;;;2.45;;
36457;SDS011;22480;50.546;12.292;2024-02-16T14:07:47;3.00;;;1.95;;
36457;SDS011;22480;50.546;12.292;2024-02-16T14:10:13;2.75;;;1.88;;
36457;SDS011;22480;50.546;12.292;2024-02-16T14:12:39;2.83;;;1.85;;
36457;SDS011;22480;50.546;12.292;2024-02-16T14:15:05;2.42;;;2.00;;
36457;SDS011;22480;50.546;12.292;2024-02-16T14:17:31;3.65;;;2.42;;
36457;SDS011;22480;50.546;12.292;2024-02-16T14:19:57;4.03;;;1.98;;
36457;SDS011;22480;50.546;12.292;2024-02-16T14:22:23;2.78;;;2.20;;
36457;SDS011;22480;50.546;12.292;2024-02-16T14:24:49;3.03;;;2.25;;
36457;SDS011;22480;50.546;12.292;2024-02-16T14:27:14;4.20;;;1.80;;
36457;SDS011;22480;50.546;12.292;2024-02-16T14:29:41;4.95;;;2.10;;
36457;SDS011;22480;50.546;12.292;2024-02-16T14:32:07;5.13;;;2.28;;
36457;SDS011;22480;50.546;12.292;2024-02-16T14:34:33;2.80;;;2.10;;
36457;SDS011;22480;50.546;12.292;2024-02-16T14:36:59;4.80;;;3.33;;